Date,TemperatureHighF,TemperatureAvgF,TemperatureLowF,DewpointHighF,DewpointAvgF,DewpointLowF,HumidityHigh,HumidityAvg,HumidityLow,PressureMaxIn,PressureMinIn,WindSpeedMaxMPH,WindSpeedAvgMPH,GustSpeedMaxMPH,PrecipitationSumIn
2013-1-1,40,23,14,19,11,2,73,60,35,30.19,30.03,12,3,12,0.00
2013-1-2,26,19,10,18,12,4,80,71,63,30.23,30.13,9,2,9,0.00
2013-1-3,30,21,11,24,15,5,84,75,67,30.22,30.07,12,4,12,0.00
2013-1-4,40,26,21,23,18,14,83,68,48,30.23,30.00,20,8,20,0.00
2013-1-5,38,25,11,28,19,10,92,77,60,30.32,30.04,10,2,10,0.00
2013-1-6,38,31,29,30,28,25,89,84,78,30.28,29.91,15,4,15,0.10
2013-1-7,39,29,19,26,23,20,83,72,55,30.40,30.18,18,4,18,0.00
2013-1-8,38,25,18,29,22,15,87,79,64,30.28,30.19,9,2,9,0.00
2013-1-9,49,37,18,33,25,19,90,64,32,30.48,30.04,21,6,21,0.58
2013-1-10,44,33,24,30,24,17,84,70,53,30.61,30.19,10,2,10,0.22
2013-1-11,59,44,34,54,40,27,94,86,72,30.20,29.76,16,3,16,0.27
2013-1-12,62,50,43,54,46,40,98,86,68,29.95,29.86,13,3,13,0.03
2013-1-13,50,39,30,46,36,27,97,92,86,29.92,29.92,17,3,17,0.17
2013-1-14,41,24,15,27,18,9,93,78,67,30.47,28.57,16,4,16,0.00
2013-1-15,38,22,12,26,16,8,89,79,70,30.50,30.18,5,1,5,0.00
2013-1-16,44,29,18,25,18,13,88,66,35,30.19,29.78,20,4,20,0.22
2013-1-17,41,33,19,26,21,6,78,62,40,30.36,29.96,19,5,19,0.00
2013-1-18,39,27,15,22,14,4,65,58,43,30.49,29.99,21,4,21,0.00
2013-1-19,51,40,32,32,26,21,70,58,43,30.00,29.57,20,8,20,0.00
2013-1-20,44,25,18,32,9,1,66,51,38,30.23,29.53,32,10,32,0.35
2013-1-21,38,16,6,13,5,-3,78,67,58,30.21,29.97,16,4,16,0.00
2013-1-22,65,8,-1,0,-4,-11,76,63,40,30.38,30.21,14,4,14,0.00
2013-1-23,22,13,5,8,3,-4,78,68,55,30.37,30.11,13,3,13,0.00
2013-1-24,40,16,8,10,3,-5,85,59,30,30.64,30.16,14,3,14,0.00
2013-1-25,28,19,15,16,9,0,80,69,52,30.55,30.04,8,1,12,0.00
2013-1-26,29,23,18,18,14,9,83,72,56,30.50,30.08,11,2,11,0.17
2013-1-27,41,24,14,26,14,6,90,72,48,30.53,30.11,11,2,11,0.19
2013-1-28,45,37,31,43,35,26,98,93,87,30.15,29.97,12,3,12,2.00
2013-1-29,57,47,35,55,44,33,99,96,93,29.97,29.97,14,3,14,1.14
2013-1-30,60,50,33,58,47,27,99,94,84,29.97,29.97,22,5,23,2.57
2013-1-31,32,24,18,27,15,10,88,74,64,29.97,29.33,19,8,19,0.48
2013-2-1,23,17,11,12,8,0,86,75,62,30.36,29.93,15,5,15,0.00
2013-2-2,26,19,10,19,11,3,85,80,74,30.29,29.95,11,3,11,0.00
2013-2-3,26,17,5,16,8,-2,87,75,61,30.09,29.85,19,3,19,0.00
2013-2-4,28,23,18,20,14,8,84,78,68,30.08,29.89,6,1,6,0.00
2013-2-5,31,25,19,24,18,12,90,81,64,29.98,29.81,14,2,14,0.00
2013-2-6,41,26,14,25,16,8,89,68,44,30.34,29.96,12,2,12,0.05
2013-2-7,45,31,23,29,22,15,78,69,52,30.31,29.86,11,3,11,0.21
2013-2-8,31,26,17,26,20,9,93,78,69,30.41,29.79,22,4,22,0.08
2013-2-9,38,23,11,24,13,4,88,71,42,30.52,30.32,8,2,8,0.00
2013-2-10,39,24,20,35,19,15,90,87,83,30.33,28.26,8,1,8,1.07
2013-2-11,43,37,30,41,29,21,93,75,62,29.90,28.26,28,8,28,1.76
2013-2-12,45,31,27,24,22,19,76,70,62,30.07,29.89,16,5,16,0.00
2013-2-13,45,32,26,25,21,19,79,67,45,29.95,29.71,10,2,10,0.01
2013-2-14,40,34,26,34,28,20,88,80,68,29.86,29.67,20,4,20,0.45
2013-2-15,35,29,22,26,16,9,78,59,40,30.16,29.85,16,5,16,0.00
2013-2-16,30,21,15,19,12,7,79,68,47,30.15,29.98,15,3,15,0.00
2013-2-17,33,19,9,11,6,1,85,60,36,30.27,30.10,18,3,18,0.00
2013-2-18,47,33,13,34,19,3,71,58,39,30.27,29.59,12,3,12,0.00
2013-2-19,46,29,19,38,22,10,92,79,62,29.99,29.48,23,8,24,1.22
2013-2-20,24,20,15,15,11,5,79,67,55,30.27,29.98,20,7,20,0.26
2013-2-21,33,24,21,21,15,12,79,72,62,30.41,30.27,11,3,11,0.00
2013-2-22,38,28,22,30,23,15,92,85,76,30.29,29.88,13,3,13,0.00
2013-2-23,38,30,24,30,22,16,92,71,54,29.88,29.88,16,5,16,0.00
2013-2-24,39,29,21,25,20,15,84,70,52,29.88,29.88,16,3,16,0.00
2013-2-25,50,32,20,31,20,14,89,64,37,29.88,29.88,8,1,8,0.00
2013-2-26,37,32,26,30,24,17,95,78,62,29.88,29.88,18,4,18,0.04
2013-2-27,33,31,29,32,30,28,100,92,90,31.28,29.58,7,3,7,5.34
2013-2-28,42,32,27,35,28,24,87,80,70,28.65,27.93,16,4,16,0.64
2013-3-1,28,25,23,26,21,18,86,79,70,30.13,28.63,15,4,15,0.00
2013-3-2,27,24,22,21,18,14,83,76,67,30.11,30.06,10,3,12,0.00
2013-3-3,32,22,15,17,15,9,86,72,48,30.10,30.02,14,4,14,0.00
2013-3-5,31,29,27,21,16,0,72,56,69,31.17,0.00,13,3,15,0.00
2013-3-6,35,32,32,27,23,0,79,68,69,30.22,0.00,6,2,6,0.52
2013-3-7,39,33,23,29,24,14,81,68,57,30.43,30.21,10,2,10,0.16
2013-3-8,52,31,19,24,19,12,79,61,34,30.52,30.41,8,1,8,0.00
2013-3-9,50,35,22,30,24,16,84,65,44,30.45,30.04,10,2,10,0.43
2013-3-10,68,50,33,43,34,25,78,58,41,30.05,29.79,16,2,16,0.00
2013-3-11,55,49,38,48,42,30,93,79,53,29.81,29.53,20,5,21,2.04
2013-3-12,38,35,29,32,28,23,88,81,70,29.95,29.70,18,6,18,0.00
2013-3-13,37,30,26,26,20,12,89,68,48,30.22,29.87,20,7,20,0.22
2013-3-14,48,34,22,20,16,11,74,52,32,30.29,30.10,14,4,14,0.00
2013-3-15,43,36,30,31,26,17,82,71,55,30.11,29.85,12,4,12,0.21
2013-3-16,34,31,28,28,25,22,90,84,76,30.06,29.77,10,3,10,0.03
2013-3-17,43,30,21,23,16,12,81,62,41,30.28,30.05,15,4,15,0.61
2013-3-18,36,31,23,32,24,12,95,81,66,30.22,29.55,16,5,16,0.43
2013-3-19,39,28,24,31,19,14,93,70,59,29.97,29.57,26,9,26,0.08
2013-3-20,38,26,18,18,14,7,74,61,46,30.00,29.89,18,6,18,0.00
2013-3-21,38,25,15,22,16,7,88,73,57,29.99,29.87,18,6,18,0.00
2013-3-22,47,33,27,22,19,16,78,59,38,30.05,29.92,16,5,16,0.00
2013-3-23,47,32,22,26,20,14,82,63,43,30.11,30.03,9,2,10,0.00
2013-3-24,40,31,23,27,20,15,79,68,51,30.08,29.63,16,4,16,0.00
2013-3-25,44,36,31,27,24,21,75,66,52,29.92,29.55,15,4,15,0.00
2013-3-26,47,38,34,30,26,22,82,67,49,30.13,29.92,14,4,14,0.00
2013-3-27,52,40,31,29,24,20,87,59,35,30.22,30.10,18,7,18,0.00
2013-3-28,60,43,31,28,23,20,75,50,26,30.27,30.19,14,5,14,0.00
2013-3-29,62,43,30,22,19,13,63,41,24,30.31,30.17,11,2,11,0.00
2013-3-30,62,44,26,27,20,15,69,42,19,30.25,29.93,14,2,14,0.00
2013-3-31,64,47,35,42,29,20,79,54,26,29.95,29.57,18,4,18,0.25
2013-4-1,45,36,28,28,15,8,72,45,26,30.14,29.69,20,7,20,0.02
2013-4-2,49,34,24,19,12,8,72,44,25,30.28,30.09,17,6,18,0.00
2013-4-3,54,36,25,16,11,4,61,39,24,30.42,30.27,16,3,16,0.00
2013-4-4,62,43,24,17,14,10,61,36,15,30.41,29.94,13,3,13,0.00
2013-4-5,58,45,33,25,17,9,62,35,22,30.23,29.93,14,3,14,0.00
2013-4-6,56,42,30,28,21,16,62,47,28,30.27,29.78,14,4,14,0.00
2013-4-7,61,54,40,43,34,25,63,49,36,30.04,29.60,23,6,23,0.00
2013-4-8,69,48,36,57,37,24,88,72,52,30.07,29.69,23,4,23,1.39
2013-4-9,58,48,44,45,41,38,91,83,68,30.07,18.01,11,2,11,0.00
2013-4-10,48,43,39,42,39,36,94,88,79,29.99,24.09,15,3,15,0.22
2013-4-11,40,37,36,37,35,33,98,94,92,24.09,24.09,15,5,15,1.74
2013-4-12,45,39,36,39,35,32,98,90,75,29.76,24.09,20,4,20,0.77
2013-4-13,46,40,38,37,30,24,93,75,55,29.15,29.15,20,6,20,0.42
2013-4-14,56,42,33,36,29,24,77,67,49,29.15,29.15,11,2,11,0.03
2013-4-15,72,56,37,51,42,29,81,65,48,29.15,29.15,16,3,16,0.02
2013-4-16,62,53,48,51,47,43,93,81,68,29.15,29.15,15,4,15,0.55
2013-4-17,44,44,44,38,38,37,86,85,84,29.15,29.15,9,5,13,0.03
2013-4-18,80,58,44,65,53,38,96,86,56,29.71,29.15,28,4,28,2.23
2013-4-19,58,46,38,57,38,26,98,80,62,29.78,19.52,28,8,28,0.77
2013-4-20,49,38,28,29,20,14,87,54,36,30.48,29.77,20,7,20,0.42
2013-4-21,56,40,23,28,21,14,78,53,36,30.61,30.48,11,2,11,0.28
2013-4-22,70,49,30,37,27,20,81,49,18,30.50,30.18,9,2,9,0.43
2013-4-23,74,56,37,52,38,26,85,57,31,30.21,29.84,19,3,19,1.10
2013-4-24,55,41,35,51,37,27,98,89,69,30.16,29.86,15,5,15,0.85
2013-4-25,58,42,32,42,30,22,90,69,39,30.38,30.07,20,5,20,1.58
2013-4-26,67,48,28,36,29,21,82,54,29,30.46,30.33,13,2,13,0.00
2013-4-27,73,47,34,43,32,27,83,63,24,33.06,30.02,9,1,9,0.00
2013-4-29,76,66,58,58,54,50,83,66,49,29.94,29.87,10,2,10,0.00
2013-4-30,63,55,52,56,50,47,92,85,78,29.96,29.90,10,2,10,0.00
2013-5-1,88,70,49,56,50,44,90,56,29,30.25,29.90,12,2,13,0.00
2013-5-2,85,68,51,54,47,39,78,51,29,30.26,30.13,12,2,12,0.00
2013-5-3,83,68,56,54,41,30,58,41,18,30.15,30.04,11,2,11,0.00
2013-5-4,79,65,54,47,38,-78,65,41,23,30.13,30.04,13,3,13,0.00
2013-5-5,80,65,52,43,35,28,58,37,18,30.11,30.01,12,2,12,0.00
2013-5-6,83,65,48,42,-9,-78,63,27,32,30.06,29.96,10,2,12,0.00
2013-5-7,83,66,51,-67,-74,-81,0,0,100,30.06,29.98,11,2,11,0.00
2013-5-8,57,55,53,-78,-79,-80,0,0,100,30.04,20.21,4,0,4,0.00
2013-5-10,74,61,45,-70,-76,-85,0,0,100,29.89,29.74,20,5,20,0.25
2013-5-11,68,49,38,-74,-82,-88,0,0,100,29.93,29.70,20,4,20,0.99
2013-5-12,53,42,31,-81,-86,-90,0,0,100,30.12,29.90,24,6,24,0.35
2013-5-13,64,46,27,-77,-82,-90,0,0,100,30.16,30.08,12,2,12,1.16
2013-5-14,86,62,42,-65,-76,-86,0,0,100,30.12,29.72,14,2,14,0.48
2013-5-15,88,73,55,-64,-70,-79,0,0,100,29.80,29.59,20,5,20,0.00
2013-5-16,90,72,50,-63,-71,-81,0,0,100,30.04,29.79,14,3,14,0.04
2013-5-17,83,65,49,-67,-75,-82,0,0,100,30.16,30.03,11,2,11,0.00
2013-5-18,89,70,54,-64,-72,-79,0,0,100,30.16,30.03,9,2,9,0.00
2013-5-19,98,73,53,60,-23,-80,71,19,32,30.07,29.89,10,1,10,0.00
2013-5-20,97,78,60,68,59,52,84,59,31,29.94,29.77,18,3,18,0.00
2013-5-21,91,78,66,66,58,54,76,54,33,29.84,29.71,16,3,16,0.73
2013-5-22,88,70,61,64,60,54,89,73,38,29.76,29.58,23,4,23,0.45
2013-5-23,67,55,43,60,50,38,94,88,74,30.17,29.70,16,4,16,1.43
2013-5-24,65,50,39,42,35,27,94,65,36,30.36,30.16,13,3,13,0.00
2013-5-25,75,54,35,40,32,28,84,51,26,30.40,30.26,9,1,9,0.00
2013-5-26,79,55,37,42,32,28,80,50,21,30.37,30.25,8,1,8,0.00
2013-5-27,54,52,51,22,-62,-82,32,4,1,30.20,29.98,10,2,10,1.58
2013-5-28,82,64,52,43,19,-70,39,25,1,30.02,29.81,16,2,16,0.83
2013-5-29,89,76,67,19,-60,-73,16,1,1,30.02,29.78,17,4,17,0.00
2013-5-30,96,76,62,-61,-69,-75,0,0,100,30.07,29.97,17,2,17,1.25
2013-5-31,85,73,66,20,-51,-73,14,2,1,30.03,29.88,19,3,19,0.15
2013-6-1,82,71,63,40,-26,-74,44,12,3,29.88,29.71,18,4,18,0.33
2013-6-2,75,66,54,2,-68,-80,8,0,1,30.00,29.67,17,5,17,0.00
2013-6-3,76,60,41,-70,-77,-86,0,0,100,30.11,30.00,11,2,11,0.00
2013-6-4,84,64,46,-67,-75,-84,0,0,100,30.20,30.10,8,2,8,0.00
2013-6-5,84,65,51,-67,-75,-81,0,0,100,30.19,29.99,9,2,9,0.00
2013-6-6,80,63,55,-69,-75,-79,0,0,100,30.02,29.84,11,2,11,0.00
2013-6-7,68,57,50,-74,-78,-82,0,0,100,29.92,29.87,9,2,9,0.00
2013-6-9,68,67,65,50,50,49,59,55,54,29.98,29.96,8,2,8,0.00
2013-6-10,72,65,60,58,-1,-76,89,33,1,29.98,29.73,6,1,12,4.28
2013-6-11,88,74,63,38,-25,-71,37,13,2,29.90,29.77,12,3,12,0.00
2013-6-12,83,71,63,-66,-71,-75,0,0,100,29.94,29.66,9,1,9,0.39
2013-6-13,85,70,60,21,-47,-75,19,4,1,29.95,29.52,20,3,20,1.51
2013-6-14,88,70,58,-65,-72,-78,0,0,100,30.08,29.94,10,2,10,0.00
2013-6-15,85,68,54,-65,-73,-79,0,0,100,30.10,29.94,14,2,14,0.02
2013-6-16,89,73,63,34,-54,-75,29,3,1,29.95,29.79,13,4,13,1.21
2013-6-17,93,76,60,-62,-69,-76,0,0,100,29.95,29.84,12,3,12,0.00
2013-6-18,81,65,54,-68,-74,-79,0,0,100,30.10,29.89,19,2,19,0.00
2013-6-19,87,66,46,-66,-74,-83,0,0,100,30.19,30.09,9,1,9,0.00
2013-6-20,73,55,50,-70,-79,-81,0,0,100,30.21,30.16,4,0,4,0.00
2013-6-21,91,80,58,-62,-67,-77,0,0,100,30.21,30.05,12,2,12,0.00
2013-6-22,94,76,67,-61,-68,-72,0,0,100,30.11,29.99,10,3,10,0.00
2013-6-23,95,80,67,-61,-66,-72,0,0,100,30.08,29.98,16,4,16,0.00
2013-6-24,95,80,67,-61,-67,-73,0,0,100,30.07,29.93,13,4,13,0.00
2013-6-25,89,75,67,-39,-69,-73,0,0,100,30.03,29.81,15,4,15,0.79
2013-6-26,93,75,65,36,-46,-74,28,4,1,29.93,29.76,10,2,10,0.02
2013-6-27,69,65,62,0,0,0,0,0,100,0.00,0.00,0,0,0,0.00
2013-6-28,120,60,62,0,-13,-74,0,0,100,33.22,0.00,9,0,9,0.12
2013-6-30,86,82,78,0,0,0,0,0,100,33.20,20.42,0,0,0,0.00
2013-7-2,80,77,75,0,0,0,0,0,100,32.80,23.96,0,0,0,0.00
2013-7-3,88,79,70,0,0,0,0,0,100,33.14,20.90,0,0,0,0.00
2013-7-4,82,72,66,0,0,0,0,0,100,33.20,20.67,0,0,0,0.00
2013-7-5,70,70,69,0,0,0,0,0,100,33.04,28.32,0,0,0,0.00
2013-7-6,90,78,70,70,62,0,90,68,35,30.19,26.68,8,1,8,0.13
2013-7-7,88,74,68,70,59,-72,96,75,52,30.06,29.96,12,3,12,0.10
2013-7-8,86,74,66,-64,-69,-73,0,0,100,30.06,29.97,15,2,15,0.42
2013-7-9,93,76,70,68,-63,-71,60,1,1,30.01,29.89,11,3,11,0.23
2013-7-10,88,76,64,55,-28,-73,47,12,2,29.97,29.41,21,3,21,0.15
2013-7-11,88,72,58,-65,-71,-77,0,0,100,30.09,29.96,8,2,8,0.00
2013-7-12,90,71,54,-64,-71,-79,0,0,100,30.17,30.08,8,1,8,0.00
2013-7-13,94,75,59,-62,-69,-77,0,0,100,30.24,30.15,8,1,8,0.00
2013-7-14,98,80,64,-60,-67,-74,0,0,100,30.28,30.22,8,1,8,0.00
2013-7-15,101,82,69,-58,-66,-72,0,0,100,30.32,30.23,9,1,9,1.45
2013-7-16,95,83,74,-1,-64,-69,8,0,1,30.32,30.25,10,2,10,0.00
2013-7-17,98,84,73,-60,-65,-70,0,0,100,30.31,30.17,12,2,12,0.00
2013-7-18,97,85,71,-59,-64,-70,0,0,100,30.19,29.98,13,3,13,0.00
2013-7-19,97,85,74,-59,-64,-69,0,0,100,30.00,29.75,19,6,19,0.00
2013-7-20,81,80,78,-66,-66,-67,0,0,100,29.84,29.75,16,7,16,0.21
2013-7-27,93,65,54,0,0,0,0,0,100,0.00,0.00,0,0,0,0.00
2013-7-28,71,58,50,0,0,0,0,0,100,0.00,0.00,0,0,0,0.00
2013-7-29,77,63,55,0,0,0,0,0,100,0.00,0.00,0,0,0,0.00
2013-7-30,87,68,51,0,0,0,0,0,100,0.00,0.00,0,0,0,0.00
2013-7-31,84,69,63,0,0,0,0,0,100,0.00,0.00,0,0,0,0.00
2013-8-1,86,70,59,0,0,0,0,0,100,0.00,0.00,0,0,0,0.00
2013-8-2,75,65,53,0,0,0,0,0,100,0.00,0.00,0,0,0,0.00
2013-8-3,85,71,58,0,0,0,0,0,100,0.00,0.00,0,0,0,0.00
2013-8-4,82,65,54,50,11,0,60,12,39,33.25,0.00,5,0,5,0.00
2013-8-5,75,64,52,72,49,0,97,59,45,33.14,18.15,10,1,10,0.00
2013-8-6,85,70,62,68,60,53,85,73,51,29.98,29.90,11,1,11,0.34
2013-8-7,90,72,64,62,-67,-74,85,2,83,29.94,29.82,11,2,11,0.52
2013-8-8,84,71,63,-66,-71,-74,0,0,100,30.02,29.90,10,2,12,0.00
2013-8-9,87,72,60,-64,-70,-76,0,0,100,30.03,29.94,12,2,12,0.00
2013-8-10,86,71,60,-66,-71,-76,0,0,100,30.14,30.03,6,1,6,0.00
2013-8-11,88,70,55,-65,-71,-79,0,0,100,30.15,30.03,11,2,10,0.00
2013-8-12,78,66,62,-1,-73,-75,4,0,1,30.08,29.84,10,1,10,4.83
2013-8-13,76,64,54,19,-51,-79,22,3,1,30.07,29.83,15,3,15,0.02
2013-8-14,81,61,48,-68,-76,-82,0,0,100,30.18,30.07,10,2,10,0.00
2013-8-15,82,63,48,-68,-75,-82,0,0,100,30.20,30.08,9,1,10,0.00
2013-8-16,90,68,52,-64,-72,-80,0,0,100,30.22,30.13,7,1,7,0.00
2013-8-17,89,69,44,-64,-72,-80,0,0,100,30.28,30.19,8,1,8,0.00
2013-8-18,91,69,56,-63,-72,-78,0,0,100,30.22,30.12,7,1,7,0.00
2013-8-19,89,71,55,-64,-71,-79,0,0,100,30.15,30.04,10,2,10,0.00
2013-8-20,92,74,59,-62,-70,-77,0,0,100,30.15,30.08,12,2,12,0.00
2013-8-21,93,77,64,-62,-68,-74,0,0,100,30.15,30.01,11,2,11,0.00
2013-8-22,72,70,69,-70,-71,-72,0,0,100,30.05,29.96,9,2,9,0.00
2013-8-27,76,75,74,0,-34,-68,0,0,100,29.41,29.41,0,0,11,1.30
2013-8-28,86,79,74,-64,-67,-69,0,0,100,33.45,20.40,5,1,9,0.00
2013-8-30,93,90,89,89,-54,-63,100,5,100,33.28,20.19,13,7,14,0.00
2013-9-2,82,71,61,74,-67,-76,100,2,42,33.47,20.39,13,5,14,0.00
2013-9-3,83,66,58,76,-73,-78,100,1,100,33.49,20.53,10,2,12,0.00
2013-9-4,83,62,56,79,-72,-78,100,3,100,33.50,20.94,17,2,17,0.00
2013-9-5,81,65,53,51,-73,-80,42,1,42,33.44,20.71,7,1,14,0.00
2013-9-6,93,61,45,75,-76,-84,100,0,100,33.49,20.59,7,1,12,0.00
2013-9-7,86,76,71,-64,-68,-71,0,0,100,33.19,20.60,10,2,12,0.03
2013-9-8,85,70,57,-66,-72,-78,0,0,100,33.49,20.48,9,2,10,0.00
2013-9-9,64,57,51,-74,-78,-80,0,0,100,33.49,20.86,3,0,3,0.00
2013-9-10,98,89,76,96,-58,-68,100,3,100,33.47,20.17,14,4,14,0.00
2013-9-11,113,79,69,90,-65,-72,100,1,100,33.29,20.16,16,3,18,0.39
2013-9-12,85,70,66,-65,-71,-74,0,0,100,33.49,20.36,11,2,12,0.00
2013-9-13,64,51,45,39,-53,-84,48,11,36,33.42,20.96,7,1,18,0.00
2013-9-14,78,55,37,40,-35,-88,59,15,27,33.48,20.70,9,1,9,0.22
2013-9-15,52,47,45,-81,-83,-84,0,0,100,33.27,21.20,3,0,3,0.00
2013-9-20,70,66,63,-69,-72,-74,0,0,100,33.19,20.68,9,3,9,2.38
2013-9-21,76,61,56,0,-74,-79,0,0,100,30.44,26.77,12,3,12,0.27
2013-9-22,69,55,45,-74,-79,-84,0,0,100,30.11,29.87,11,2,11,0.00
2013-9-23,72,52,41,-72,-80,-86,0,0,100,30.19,30.10,6,1,6,0.00
2013-9-24,78,56,41,-70,-79,-86,0,0,100,30.17,29.99,8,1,8,0.02
2013-9-25,79,58,45,-68,-77,-84,0,0,100,30.03,29.93,9,1,9,0.00
2013-9-26,84,62,46,-66,-76,-83,0,0,100,30.17,30.01,9,1,9,0.04
2013-9-27,84,62,46,-66,-76,-83,0,0,100,30.24,30.16,7,1,7,0.00
2013-9-28,84,64,50,-65,-74,-81,0,0,100,30.21,30.02,9,1,9,0.00
2013-9-29,65,60,57,-74,-76,-78,0,0,100,30.04,29.95,7,1,12,0.24
2013-9-30,78,62,53,-14,-75,-80,3,0,2,30.01,29.91,11,2,11,0.00
2013-10-1,71,59,38,-12,-75,-82,4,0,1,30.03,29.93,13,2,13,0.02
2013-10-2,88,68,55,12,-71,-79,12,0,1,30.08,29.96,6,1,6,0.00
2013-10-3,80,66,54,-67,-74,-79,0,0,100,30.08,29.93,12,1,12,0.00
2013-10-4,84,70,63,-66,-71,-75,0,0,100,30.04,29.94,10,2,10,0.03
2013-10-5,78,68,64,-68,-72,-74,0,0,100,30.06,29.87,8,1,8,0.24
2013-10-6,71,64,55,18,-50,-79,13,2,1,29.88,29.63,19,2,19,0.76
2013-10-7,55,49,43,-18,-80,-85,7,0,2,29.80,29.70,14,4,14,0.19
2013-10-16,52,52,51,-80,-81,-81,0,0,100,29.92,29.90,8,4,8,0.00
2013-10-17,52,49,44,-80,-82,-84,0,0,100,29.91,29.75,14,3,14,0.07
2013-10-18,68,51,39,-73,-81,-87,0,0,100,29.93,29.82,13,3,13,0.04
2013-10-19,49,43,37,-82,-85,-88,0,0,100,29.93,29.74,14,2,14,0.10
2013-10-20,66,49,37,-75,-82,-88,0,0,100,29.90,29.84,16,3,16,0.15
2013-10-21,54,50,39,-80,-82,-87,0,0,100,29.88,29.80,13,4,13,0.02
2013-10-22,55,42,31,-80,-84,-90,0,0,100,29.95,29.85,15,4,15,0.00
2013-10-23,54,40,31,-81,-85,-90,0,0,100,29.96,29.83,14,3,14,0.31
2013-10-24,54,39,32,-81,-86,-90,0,0,100,30.20,29.94,13,4,13,2.08
2013-10-25,54,39,31,-81,-85,-90,0,0,100,30.33,30.13,14,4,14,0.00
2013-10-26,54,43,36,-80,-85,-89,0,0,100,30.14,29.77,20,6,20,0.27
2013-10-27,59,42,30,-78,-84,-90,0,0,100,30.08,29.96,12,2,12,0.29
2013-10-28,55,42,30,-80,-84,-90,0,0,100,30.40,30.04,9,1,9,0.02
2013-10-29,56,44,34,-80,-85,-90,0,0,100,30.45,30.26,6,1,6,3.81
2013-10-30,70,49,33,-72,-81,-90,0,0,100,30.26,29.96,8,1,8,0.69
2013-10-31,62,59,52,35,-10,-81,40,14,1,29.97,29.15,18,4,18,2.40
2013-11-1,60,51,46,34,-60,-84,39,5,3,29.66,29.12,22,8,22,0.10
2013-11-13,46,33,17,-83,-86,-91,0,0,100,33.49,19.19,153,6,153,0.00
2013-11-14,46,39,30,44,-83,-88,100,2,62,31.83,18.75,15,5,19,0.00
2013-11-15,42,36,35,-86,-88,-89,0,0,100,33.19,20.56,9,3,9,0.00
2013-11-16,58,54,51,-78,-79,-80,0,0,100,33.05,20.05,11,4,12,0.00
2013-11-17,62,55,45,-74,-78,-83,0,0,100,29.81,29.22,32,7,42,2.29
2013-11-18,46,41,31,-83,-85,-90,0,0,100,30.14,29.46,25,9,25,0.00
2013-11-19,44,30,22,-83,-87,-90,0,0,100,30.44,30.14,12,3,14,0.00
2013-11-20,45,31,20,-83,-87,-90,0,0,100,30.47,30.25,12,2,13,0.00
2013-11-21,44,40,36,-83,-85,-87,0,0,100,30.29,30.18,10,2,13,0.31
2013-11-22,43,37,23,-83,-85,-90,0,0,100,30.40,30.13,18,3,18,0.06
2013-11-23,31,21,14,-83,-88,-93,0,0,100,30.58,30.29,18,5,19,1.21
2013-11-24,29,18,11,-85,-91,-95,0,0,100,30.65,30.47,14,4,14,0.35
2013-11-25,30,23,15,-84,-88,-92,0,0,100,30.47,30.10,16,6,19,0.00
2013-11-26,34,29,26,-83,-86,-90,0,0,100,30.13,29.94,11,3,14,0.00
2013-11-27,43,23,17,-84,-88,-92,0,0,100,30.25,29.93,20,5,20,0.00
2013-11-28,29,22,15,-85,-89,-93,0,0,100,30.46,30.25,10,2,11,0.00
2013-11-29,41,25,14,-83,-89,-93,0,0,100,30.66,30.46,6,1,6,0.00
2013-11-30,50,34,26,-82,-86,-90,0,0,100,30.57,30.12,11,2,11,0.00
2013-12-1,48,35,28,-83,-86,-90,0,0,100,30.12,29.96,10,2,10,0.00
2013-12-2,45,33,23,-83,-86,-90,0,0,100,30.01,29.88,6,1,6,0.00
2013-12-3,38,34,23,-83,-87,-90,0,0,100,29.94,29.84,8,2,8,0.16
2013-12-4,57,46,36,-78,-84,-88,0,0,100,29.90,29.61,10,2,10,0.14
2013-12-5,57,43,30,-78,-84,-90,0,0,100,30.17,29.60,20,6,20,0.00
2013-12-6,31,27,21,-84,-86,-90,0,0,100,30.44,30.14,11,4,11,0.00
2013-12-7,30,20,12,-84,-90,-95,0,0,100,30.68,30.43,13,3,13,0.00
2013-12-8,30,20,11,-85,-90,-95,0,0,100,30.67,30.00,12,3,12,0.00
2013-12-9,30,26,19,-85,-87,-91,0,0,100,30.15,29.89,22,6,22,0.00
2013-12-10,25,18,10,-88,-92,-96,0,0,100,30.23,29.96,20,6,20,0.00
2013-12-11,30,18,7,-85,-92,-98,0,0,100,30.55,30.22,15,4,15,0.00
2013-12-12,23,14,5,-89,-94,-100,0,0,100,30.55,30.21,17,5,17,0.00
2013-12-13,32,24,20,-84,-88,-91,0,0,100,30.29,30.17,11,3,12,0.00
2013-12-14,23,20,18,-88,-90,-91,0,0,100,30.30,29.84,14,4,14,0.00
2013-12-15,26,20,15,-87,-90,-93,0,0,100,30.09,29.82,21,5,21,0.00
2013-12-16,64,15,5,-85,-93,-99,0,0,100,30.22,30.04,8,2,8,0.00
2013-12-17,30,21,14,-84,-89,-94,0,0,100,30.05,29.90,14,3,14,0.00
2013-12-18,27,24,21,-86,-88,-89,0,0,100,30.11,30.02,10,3,10,0.00
2013-12-21,36,34,33,-83,-86,-90,0,0,100,29.84,29.63,11,3,11,1.73
2013-12-22,38,35,33,-83,-87,-90,0,0,100,29.96,29.54,18,4,18,0.85
2013-12-23,49,30,21,-83,-85,-90,0,0,100,30.34,29.96,16,5,16,0.00
2013-12-24,26,17,10,-87,-93,-97,0,0,100,30.62,30.34,14,4,14,0.00
2013-12-25,26,21,9,-88,-91,-97,0,0,100,30.58,30.13,11,2,11,0.00
2013-12-26,31,27,24,-84,-87,-88,0,0,100,30.32,30.06,18,4,18,0.00
2013-12-27,40,32,26,-83,-87,-90,0,0,100,30.32,30.08,16,3,16,0.02
2013-12-28,52,39,31,-80,-86,-90,0,0,100,30.15,29.91,16,4,16,0.02
2013-12-29,47,34,23,-83,-88,-90,0,0,100,30.04,29.66,15,4,15,0.00
2013-12-30,23,20,14,-89,-91,-94,0,0,100,30.31,30.04,16,3,16,1.73
2013-12-31,23,18,15,-89,-92,-94,0,0,100,30.38,30.11,15,5,15,0.00
2014-1-1,17,15,14,-93,-94,-95,0,0,100,30.44,30.25,10,2,10,0.00
2014-1-2,19,13,3,-92,-95,-100,0,0,100,30.38,30.09,21,5,21,0.00